createdAt,value
2018-05-29T00:00:41.375Z,7.43
2018-05-29T00:03:08.979Z,7.87
2018-05-29T00:05:36.553Z,7.70
2018-05-29T00:08:04.045Z,7.80
2018-05-29T00:10:31.541Z,7.73
2018-05-29T00:12:59.074Z,13.60
2018-05-29T00:15:27.437Z,8.30
2018-05-29T00:17:54.921Z,9.27
2018-05-29T00:20:23.187Z,8.43
2018-05-29T00:22:51.551Z,9.37
2018-05-29T00:25:19.127Z,12.40
2018-05-29T00:27:46.701Z,10.53
2018-05-29T00:30:14.191Z,11.27
2018-05-29T00:32:41.687Z,10.97
2018-05-29T00:35:09.182Z,11.00
2018-05-29T00:37:36.751Z,12.63
2018-05-29T00:40:04.304Z,11.77
2018-05-29T00:42:31.827Z,12.70
2018-05-29T00:44:59.322Z,11.83
2018-05-29T00:47:26.809Z,10.37
2018-05-29T00:49:54.372Z,11.20
2018-05-29T00:52:21.883Z,11.63
2018-05-29T00:55:11.083Z,11.93
2018-05-29T00:57:38.589Z,14.73
2018-05-29T01:00:06.938Z,10.63
2018-05-29T01:02:34.425Z,9.87
2018-05-29T01:05:02.789Z,14.67
2018-05-29T01:07:31.177Z,10.63
2018-05-29T01:09:58.735Z,11.60
2018-05-29T01:12:26.225Z,10.30
2018-05-29T01:14:54.489Z,11.30
2018-05-29T01:17:21.993Z,11.57
2018-05-29T01:19:49.511Z,11.70
2018-05-29T01:22:17.037Z,13.73
2018-05-29T01:24:44.659Z,12.73
2018-05-29T01:27:12.227Z,17.20
2018-05-29T01:29:39.771Z,13.43
2018-05-29T01:32:07.306Z,14.20
2018-05-29T01:34:34.803Z,15.13
2018-05-29T01:37:02.379Z,15.33
2018-05-29T01:39:29.895Z,13.90
2018-05-29T01:41:57.403Z,14.10
2018-05-29T01:44:24.917Z,16.43
2018-05-29T01:46:52.419Z,14.33
2018-05-29T01:49:19.917Z,15.03
2018-05-29T01:51:48.267Z,14.70
2018-05-29T01:54:15.771Z,14.57
2018-05-29T01:56:44.056Z,13.97
2018-05-29T01:59:12.330Z,13.67
2018-05-29T02:01:40.600Z,13.93
2018-05-29T02:04:08.101Z,13.37
2018-05-29T02:06:35.595Z,13.20
2018-05-29T02:09:03.118Z,14.13
2018-05-29T02:11:31.386Z,12.53
2018-05-29T02:13:59.653Z,15.40
2018-05-29T02:16:27.209Z,12.67
2018-05-29T02:18:54.731Z,12.80
2018-05-29T02:21:22.247Z,11.37
2018-05-29T02:23:49.759Z,12.07
2018-05-29T02:26:17.263Z,12.10
2018-05-29T02:28:44.765Z,12.30
2018-05-29T02:31:13.113Z,11.80
2018-05-29T02:33:40.629Z,12.20
2018-05-29T02:36:08.112Z,11.10
2018-05-29T02:38:35.625Z,11.37
2018-05-29T02:41:03.173Z,11.57
2018-05-29T02:43:30.663Z,10.93
2018-05-29T02:45:59.028Z,11.00
2018-05-29T02:48:26.592Z,12.13
2018-05-29T02:50:54.153Z,10.13
2018-05-29T02:53:21.733Z,11.80
2018-05-29T02:55:49.228Z,10.07
2018-05-29T02:58:16.814Z,12.50
2018-05-29T03:00:44.310Z,13.63
2018-05-29T03:03:11.811Z,11.87
2018-05-29T03:05:40.069Z,11.17
2018-05-29T03:08:07.577Z,10.70
2018-05-29T03:10:35.090Z,11.17
2018-05-29T03:13:02.662Z,10.40
2018-05-29T03:15:30.148Z,16.03
2018-05-29T03:17:58.521Z,11.27
2018-05-29T03:20:26.003Z,9.70
2018-05-29T03:22:54.280Z,10.00
2018-05-29T03:25:22.549Z,10.20
2018-05-29T03:27:50.105Z,10.77
2018-05-29T03:30:17.630Z,10.70
2018-05-29T03:32:45.253Z,10.10
2018-05-29T03:35:12.797Z,9.53
2018-05-29T03:37:40.307Z,10.80
2018-05-29T03:40:07.839Z,9.53
2018-05-29T03:42:35.345Z,9.40
2018-05-29T03:45:02.856Z,10.13
2018-05-29T03:47:30.369Z,9.30
2018-05-29T03:49:57.886Z,11.20
2018-05-29T03:52:25.378Z,8.97
2018-05-29T03:54:53.741Z,8.63
2018-05-29T03:57:21.230Z,9.70
2018-05-29T03:59:49.584Z,9.20
2018-05-29T04:02:17.070Z,8.77
2018-05-29T04:04:45.345Z,9.13
2018-05-29T04:07:12.892Z,11.13
2018-05-29T04:09:40.398Z,9.27
2018-05-29T04:12:07.900Z,9.97
2018-05-29T04:14:35.391Z,9.47
2018-05-29T04:17:02.990Z,9.80
2018-05-29T04:19:30.524Z,9.87
2018-05-29T04:21:58.020Z,9.53
2018-05-29T04:24:26.302Z,10.90
2018-05-29T04:26:54.554Z,9.57
2018-05-29T04:29:22.062Z,9.10
2018-05-29T04:31:49.559Z,9.83
2018-05-29T04:34:17.150Z,10.13
2018-05-29T04:36:44.699Z,10.60
2018-05-29T04:39:12.247Z,12.43
2018-05-29T04:41:39.825Z,11.90
2018-05-29T04:44:07.309Z,11.13
2018-05-29T04:46:34.769Z,11.77
2018-05-29T04:49:02.320Z,11.57
2018-05-29T04:51:29.827Z,10.23
2018-05-29T04:53:58.182Z,9.70
2018-05-29T04:56:25.752Z,9.67
2018-05-29T04:58:53.252Z,9.67
2018-05-29T05:01:21.528Z,14.60
2018-05-29T05:03:49.784Z,10.83
2018-05-29T05:06:17.276Z,10.33
2018-05-29T05:08:44.776Z,10.97
2018-05-29T05:11:12.375Z,16.63
2018-05-29T05:13:39.942Z,11.53
2018-05-29T05:16:07.432Z,11.03
2018-05-29T05:18:35.691Z,10.70
2018-05-29T05:21:03.189Z,12.03
2018-05-29T05:23:30.700Z,12.77
2018-05-29T05:25:58.233Z,12.87
2018-05-29T05:28:25.733Z,11.83
2018-05-29T05:30:53.259Z,12.03
2018-05-29T05:33:20.775Z,28.63
2018-05-29T05:35:48.330Z,16.90
2018-05-29T05:38:15.852Z,19.97
2018-05-29T05:40:43.424Z,16.93
2018-05-29T05:43:10.889Z,14.40
2018-05-29T05:45:38.398Z,14.50
2018-05-29T05:48:06.666Z,14.47
2018-05-29T05:50:34.260Z,16.20
2018-05-29T05:53:02.636Z,13.87
2018-05-29T05:55:30.149Z,14.33
2018-05-29T05:57:57.657Z,13.07
2018-05-29T06:00:25.151Z,13.30
2018-05-29T06:02:53.434Z,12.30
2018-05-29T06:05:21.793Z,11.27
2018-05-29T06:07:49.301Z,14.20
2018-05-29T06:10:16.803Z,11.50
2018-05-29T06:12:44.289Z,10.80
2018-05-29T06:15:11.796Z,10.47
2018-05-29T06:17:39.318Z,10.70
2018-05-29T06:20:06.823Z,13.07
2018-05-29T06:22:34.326Z,11.50
2018-05-29T06:25:01.926Z,10.50
2018-05-29T06:27:30.299Z,11.27
2018-05-29T06:29:57.800Z,9.93
2018-05-29T06:32:25.324Z,9.63
2018-05-29T06:34:52.820Z,10.13
2018-05-29T06:37:21.174Z,8.50
2018-05-29T06:39:48.736Z,12.23
2018-05-29T06:42:17.751Z,11.17
2018-05-29T06:44:46.009Z,9.73
2018-05-29T06:47:13.504Z,9.60
2018-05-29T06:49:41.758Z,14.50
2018-05-29T06:52:09.327Z,11.53
2018-05-29T06:54:36.903Z,11.53
2018-05-29T06:57:05.995Z,10.60
2018-05-29T06:59:33.528Z,11.57
2018-05-29T07:02:01.123Z,10.83
2018-05-29T07:04:28.700Z,10.80
2018-05-29T07:06:56.220Z,10.07
2018-05-29T07:09:29.658Z,9.93
2018-05-29T07:11:57.908Z,10.33
2018-05-29T07:14:25.498Z,10.27
2018-05-29T07:16:53.073Z,10.07
2018-05-29T07:19:20.556Z,18.07
2018-05-29T07:21:48.911Z,10.77
2018-05-29T07:24:16.547Z,9.50
2018-05-29T07:26:44.871Z,9.07
2018-05-29T07:29:12.358Z,8.50
2018-05-29T07:31:40.718Z,8.90
2018-05-29T07:34:08.224Z,8.80
2018-05-29T07:36:35.753Z,12.67
2018-05-29T07:39:03.323Z,8.70
2018-05-29T07:41:30.820Z,10.03
2018-05-29T07:43:58.344Z,13.47
2018-05-29T07:46:25.906Z,159.83
2018-05-29T07:48:53.417Z,220.83
2018-05-29T07:51:20.937Z,270.03
2018-05-29T07:53:48.525Z,153.93
2018-05-29T07:56:16.886Z,132.10
2018-05-29T07:58:44.402Z,108.37
2018-05-29T08:01:12.017Z,75.83
2018-05-29T08:03:39.599Z,62.10
2018-05-29T08:06:07.098Z,42.23
2018-05-29T08:08:34.623Z,31.43
2018-05-29T08:11:03.616Z,33.97
2018-05-29T08:13:31.178Z,20.57
2018-05-29T08:15:58.665Z,17.90
2018-05-29T08:18:26.952Z,14.23
2018-05-29T08:20:55.201Z,13.10
2018-05-29T08:23:22.769Z,13.40
2018-05-29T08:25:50.341Z,14.50
2018-05-29T08:28:17.835Z,8.23
2018-05-29T08:30:46.191Z,8.50
2018-05-29T08:33:13.753Z,10.17
2018-05-29T08:35:41.249Z,7.67
2018-05-29T08:38:09.504Z,10.97
2018-05-29T08:40:37.069Z,23.47
2018-05-29T08:43:04.581Z,13.63
2018-05-29T08:45:32.089Z,11.83
2018-05-29T08:47:59.658Z,9.93
2018-05-29T08:50:27.189Z,23.90
2018-05-29T08:52:54.795Z,10.60
2018-05-29T08:55:22.345Z,9.43
2018-05-29T08:57:49.874Z,8.37
2018-05-29T09:00:17.357Z,7.30
2018-05-29T09:02:44.861Z,6.67
2018-05-29T09:05:12.416Z,6.33
2018-05-29T09:07:39.995Z,7.40
2018-05-29T09:10:07.498Z,6.70
2018-05-29T09:12:34.990Z,13.87
2018-05-29T09:15:02.573Z,5.70
2018-05-29T09:17:30.089Z,5.80
2018-05-29T09:19:57.594Z,9.40
2018-05-29T09:22:25.095Z,7.03
2018-05-29T09:24:53.369Z,8.83
2018-05-29T09:27:21.627Z,6.27
2018-05-29T09:29:49.212Z,5.17
2018-05-29T09:32:16.663Z,7.10
2018-05-29T09:34:44.217Z,4.67
2018-05-29T09:37:11.811Z,8.17
2018-05-29T09:39:39.293Z,7.87
2018-05-29T09:42:06.821Z,12.40
2018-05-29T09:44:34.400Z,9.10
2018-05-29T09:47:01.920Z,6.10
2018-05-29T09:49:29.530Z,5.33
2018-05-29T09:51:57.082Z,5.47
2018-05-29T09:54:24.661Z,6.57
2018-05-29T09:56:52.232Z,7.07
2018-05-29T09:59:19.719Z,7.00
2018-05-29T10:01:48.065Z,9.30
2018-05-29T10:04:15.552Z,7.67
2018-05-29T10:06:43.816Z,8.83
2018-05-29T10:09:11.309Z,84.73
2018-05-29T10:11:39.664Z,17.13
2018-05-29T10:14:07.235Z,11.03
2018-05-29T10:16:34.808Z,11.13
2018-05-29T10:19:02.322Z,12.87
2018-05-29T10:21:31.564Z,25.50
2018-05-29T10:23:59.070Z,74.77
2018-05-29T10:26:26.585Z,104.87
2018-05-29T10:28:54.103Z,280.27
2018-05-29T10:31:21.612Z,385.30
2018-05-29T10:33:49.186Z,277.33
2018-05-29T10:36:16.718Z,278.93
2018-05-29T10:38:44.239Z,174.17
2018-05-29T10:41:12.602Z,154.13
2018-05-29T10:43:40.136Z,176.80
2018-05-29T10:46:07.699Z,77.30
2018-05-29T10:48:35.212Z,60.27
2018-05-29T10:51:02.729Z,46.30
2018-05-29T10:53:30.330Z,29.43
2018-05-29T10:55:57.833Z,17.20
2018-05-29T10:58:25.334Z,13.43
2018-05-29T11:00:52.923Z,11.57
2018-05-29T11:03:21.217Z,10.43
2018-05-29T11:05:48.777Z,8.83
2018-05-29T11:08:16.276Z,5.10
2018-05-29T11:10:43.775Z,7.47
2018-05-29T11:13:11.272Z,8.27
2018-05-29T11:15:40.359Z,3.93
2018-05-29T11:18:07.856Z,7.97
2018-05-29T11:20:36.211Z,5.77
2018-05-29T11:23:03.706Z,4.97
2018-05-29T11:25:32.070Z,6.90
2018-05-29T11:27:59.589Z,8.40
2018-05-29T11:30:27.095Z,5.10
2018-05-29T11:32:54.592Z,4.17
2018-05-29T11:35:22.138Z,5.87
2018-05-29T11:37:50.502Z,9.57
2018-05-29T11:40:18.044Z,8.77
2018-05-29T11:42:45.531Z,6.27
2018-05-29T11:45:13.042Z,11.27
2018-05-29T11:47:40.548Z,5.30
2018-05-29T11:50:08.137Z,9.50
2018-05-29T11:55:08.484Z,48.87
2018-05-29T11:57:35.973Z,36.33
2018-05-29T12:00:04.329Z,18.47
2018-05-29T12:02:31.895Z,15.30
2018-05-29T12:04:59.484Z,16.73
2018-05-29T12:07:27.753Z,10.73
2018-05-29T12:09:55.313Z,7.33
2018-05-29T12:12:25.699Z,6.30
2018-05-29T12:14:53.215Z,5.10
2018-05-29T12:17:20.718Z,5.70
2018-05-29T12:19:48.216Z,8.27
2018-05-29T12:22:15.717Z,8.47
2018-05-29T12:24:44.137Z,5.10
2018-05-29T12:27:11.658Z,6.30
2018-05-29T12:29:39.180Z,5.23
2018-05-29T12:32:06.678Z,4.97
2018-05-29T12:34:34.247Z,7.03
2018-05-29T12:37:01.812Z,6.97
2018-05-29T12:39:29.386Z,8.07
2018-05-29T12:41:56.901Z,9.63
2018-05-29T12:44:24.390Z,6.37
2018-05-29T12:46:51.966Z,6.60
2018-05-29T12:49:19.460Z,8.73
2018-05-29T12:51:47.822Z,8.00
2018-05-29T12:54:15.340Z,15.10
2018-05-29T12:56:42.962Z,19.60
2018-05-29T12:59:10.539Z,7.97
2018-05-29T13:01:38.904Z,9.97
2018-05-29T13:04:07.184Z,7.67
2018-05-29T13:06:34.682Z,11.27
2018-05-29T13:09:02.188Z,6.80
2018-05-29T13:11:29.694Z,10.00
2018-05-29T13:13:57.955Z,8.73
2018-05-29T13:16:25.516Z,7.50
2018-05-29T13:18:53.112Z,12.10
2018-05-29T13:21:21.390Z,5.47
2018-05-29T13:23:49.674Z,9.73
2018-05-29T13:26:17.938Z,5.27
2018-05-29T13:28:45.446Z,8.77
2018-05-29T13:31:12.947Z,8.70
2018-05-29T13:33:40.577Z,7.77
2018-05-29T13:36:08.139Z,7.80
2018-05-29T13:38:35.664Z,8.73
2018-05-29T13:41:03.159Z,6.80
2018-05-29T13:43:31.509Z,8.10
2018-05-29T13:45:59.013Z,7.23
2018-05-29T13:48:26.542Z,5.83
2018-05-29T13:50:54.078Z,5.03
2018-05-29T13:53:21.666Z,4.47
2018-05-29T13:55:49.231Z,5.83
2018-05-29T13:58:16.825Z,8.47
2018-05-29T14:00:45.109Z,4.23
2018-05-29T14:03:13.378Z,5.77
2018-05-29T14:05:40.862Z,7.33
2018-05-29T14:08:09.142Z,5.10
2018-05-29T14:10:37.437Z,4.63
2018-05-29T14:13:04.938Z,4.10
2018-05-29T14:15:32.427Z,4.03
2018-05-29T14:17:59.931Z,5.10
2018-05-29T14:20:27.453Z,4.47
2018-05-29T14:22:54.948Z,4.10
2018-05-29T14:25:23.222Z,6.93
2018-05-29T14:27:51.594Z,3.90
2018-05-29T14:30:19.096Z,7.30
2018-05-29T14:32:46.622Z,4.97
2018-05-29T14:35:14.112Z,5.90
2018-05-29T14:37:42.458Z,4.23
2018-05-29T14:40:10.037Z,5.37
2018-05-29T14:42:37.540Z,5.27
2018-05-29T14:45:05.069Z,5.40
2018-05-29T14:47:33.396Z,7.53
2018-05-29T14:50:01.001Z,4.93
2018-05-29T14:52:28.502Z,6.83
2018-05-29T14:54:56.859Z,6.53
2018-05-29T14:57:24.347Z,4.97
2018-05-29T14:59:52.603Z,5.37
2018-05-29T15:02:20.157Z,7.37
2018-05-29T15:04:47.674Z,4.57
2018-05-29T15:07:15.170Z,5.20
2018-05-29T15:09:42.754Z,5.17
2018-05-29T15:12:10.248Z,4.20
2018-05-29T15:14:38.523Z,4.70
2018-05-29T15:17:06.787Z,5.97
2018-05-29T15:19:34.290Z,4.33
2018-05-29T15:22:02.545Z,7.03
2018-05-29T15:24:30.049Z,4.20
2018-05-29T15:26:57.559Z,4.60
2018-05-29T15:29:25.136Z,3.47
2018-05-29T15:31:52.707Z,5.20
2018-05-29T15:34:20.978Z,4.57
2018-05-29T15:36:48.468Z,3.40
2018-05-29T15:39:16.828Z,11.67
2018-05-29T15:41:45.836Z,11.47
2018-05-29T15:44:13.332Z,13.13
2018-05-29T15:46:40.834Z,4.87
2018-05-29T15:49:08.431Z,4.33
2018-05-29T15:51:35.961Z,4.77
2018-05-29T15:54:03.472Z,5.07
2018-05-29T15:56:31.732Z,6.73
2018-05-29T15:58:59.257Z,6.07
2018-05-29T16:01:26.772Z,5.83
2018-05-29T16:03:54.353Z,5.80
2018-05-29T16:06:22.602Z,4.20
2018-05-29T16:08:50.115Z,6.47
2018-05-29T16:11:17.618Z,4.57
2018-05-29T16:13:45.205Z,5.33
2018-05-29T16:16:13.490Z,3.50
2018-05-29T16:18:40.981Z,5.93
2018-05-29T16:21:09.341Z,14.13
2018-05-29T16:23:36.849Z,5.57
2018-05-29T16:26:04.366Z,4.73
2018-05-29T16:28:31.932Z,5.20
2018-05-29T16:30:59.439Z,4.33
2018-05-29T16:33:26.973Z,5.23
2018-05-29T16:35:55.239Z,3.97
2018-05-29T16:38:22.754Z,4.97
2018-05-29T16:40:50.280Z,4.90
2018-05-29T16:43:18.536Z,3.50
2018-05-29T16:45:46.043Z,7.93
2018-05-29T16:48:14.300Z,3.80
2018-05-29T16:50:42.561Z,3.70
2018-05-29T16:53:10.157Z,4.83
2018-05-29T16:55:37.673Z,3.63
2018-05-29T16:58:05.157Z,3.70
2018-05-29T17:00:32.669Z,4.43
2018-05-29T17:03:00.928Z,4.97
2018-05-29T17:05:28.485Z,4.50
2018-05-29T17:07:56.008Z,4.57
2018-05-29T17:10:23.529Z,4.77
2018-05-29T17:12:51.019Z,5.30
2018-05-29T17:15:18.568Z,6.17
2018-05-29T17:17:46.121Z,6.13
2018-05-29T17:20:13.616Z,6.17
2018-05-29T17:22:41.153Z,6.43
2018-05-29T17:25:09.533Z,6.83
2018-05-29T17:27:37.042Z,5.77
2018-05-29T17:30:04.555Z,5.17
2018-05-29T17:32:32.078Z,7.57
2018-05-29T17:34:59.597Z,6.63
2018-05-29T17:37:27.171Z,5.40
2018-05-29T17:39:55.443Z,6.57
2018-05-29T17:42:23.736Z,7.43
2018-05-29T17:44:51.995Z,6.77
2018-05-29T17:47:19.529Z,10.93
2018-05-29T17:49:47.140Z,8.30
2018-05-29T17:52:14.645Z,5.53
2018-05-29T17:54:42.162Z,4.83
2018-05-29T17:57:09.668Z,5.07
2018-05-29T17:59:37.161Z,5.70
2018-05-29T18:02:04.671Z,7.03
2018-05-29T18:04:32.944Z,4.70
2018-05-29T18:07:00.501Z,5.60
2018-05-29T18:09:28.009Z,4.50
2018-05-29T18:11:55.524Z,4.80
2018-05-29T18:14:23.019Z,7.67
2018-05-29T18:16:51.287Z,8.83
2018-05-29T18:19:18.843Z,4.47
2018-05-29T18:21:46.331Z,4.73
2018-05-29T18:24:14.593Z,5.10
2018-05-29T18:26:42.083Z,6.50
2018-05-29T18:29:09.583Z,5.53
2018-05-29T18:31:37.099Z,4.03
2018-05-29T18:34:05.365Z,5.47
2018-05-29T18:36:32.876Z,5.63
2018-05-29T18:39:00.390Z,11.30
2018-05-29T18:41:27.891Z,4.43
2018-05-29T18:43:56.191Z,6.17
2018-05-29T18:46:23.696Z,5.73
2018-05-29T18:48:51.194Z,6.43
2018-05-29T18:51:19.571Z,5.53
2018-05-29T18:53:47.842Z,4.87
2018-05-29T18:56:15.418Z,6.63
2018-05-29T18:58:43.693Z,4.20
2018-05-29T19:01:11.225Z,11.90
2018-05-29T19:03:38.843Z,7.23
2018-05-29T19:06:06.396Z,5.83
2018-05-29T19:08:35.492Z,5.17
2018-05-29T19:11:03.036Z,6.70
2018-05-29T19:13:30.641Z,8.17
2018-05-29T19:15:58.919Z,9.23
2018-05-29T19:18:27.309Z,11.07
2018-05-29T19:20:55.603Z,5.73
2018-05-29T19:23:23.084Z,5.90
2018-05-29T19:25:50.625Z,7.67
2018-05-29T19:28:18.975Z,3.90
2018-05-29T19:30:46.527Z,5.00
2018-05-29T19:33:14.125Z,4.63
2018-05-29T19:35:42.383Z,5.80
2018-05-29T19:38:09.891Z,5.90
2018-05-29T19:40:37.426Z,7.73
2018-05-29T19:43:04.981Z,10.43
2018-05-29T19:45:32.532Z,4.23
2018-05-29T19:48:00.020Z,5.57
2018-05-29T19:50:27.561Z,5.47
2018-05-29T19:52:55.057Z,5.07
2018-05-29T19:55:23.455Z,6.13
2018-05-29T19:57:52.703Z,3.97
2018-05-29T20:00:20.321Z,3.53
2018-05-29T20:02:48.599Z,7.47
2018-05-29T20:05:16.869Z,4.40
2018-05-29T20:07:44.470Z,4.60
2018-05-29T20:10:12.029Z,4.27
2018-05-29T20:12:40.413Z,4.17
2018-05-29T20:15:07.967Z,4.30
2018-05-29T20:17:36.227Z,5.10
2018-05-29T20:20:03.800Z,6.07
2018-05-29T20:22:31.309Z,6.23
2018-05-29T20:24:58.823Z,4.53
2018-05-29T20:27:26.345Z,8.20
2018-05-29T20:29:53.877Z,9.23
2018-05-29T20:32:22.255Z,7.80
2018-05-29T20:34:50.613Z,6.83
2018-05-29T20:37:18.206Z,10.10
2018-05-29T20:39:46.473Z,10.37
2018-05-29T20:42:14.260Z,8.07
2018-05-29T20:44:42.529Z,7.53
2018-05-29T20:47:10.064Z,9.30
2018-05-29T20:49:38.353Z,7.77
2018-05-29T20:52:05.899Z,12.20
2018-05-29T20:54:33.399Z,8.67
2018-05-29T20:57:00.899Z,8.57
2018-05-29T20:59:28.430Z,11.53
2018-05-29T21:01:56.718Z,11.37
2018-05-29T21:04:24.287Z,14.97
2018-05-29T21:06:51.845Z,9.80
2018-05-29T21:09:19.355Z,12.00
2018-05-29T21:11:46.892Z,11.30
2018-05-29T21:14:15.152Z,13.57
2018-05-29T21:16:42.725Z,9.90
2018-05-29T21:19:10.296Z,10.87
2018-05-29T21:21:37.804Z,9.13
2018-05-29T21:24:05.328Z,9.53
2018-05-29T21:26:32.837Z,9.03
2018-05-29T21:29:00.335Z,6.70
2018-05-29T21:31:27.829Z,9.93
2018-05-29T21:33:56.099Z,9.33
2018-05-29T21:36:23.660Z,10.73
2018-05-29T21:38:51.162Z,6.60
2018-05-29T21:41:18.694Z,13.07
2018-05-29T21:43:46.252Z,6.30
2018-05-29T21:46:13.826Z,7.43
2018-05-29T21:48:41.350Z,6.30
2018-05-29T21:51:08.954Z,9.37
2018-05-29T21:53:36.451Z,11.37
2018-05-29T21:56:03.957Z,8.73
2018-05-29T21:58:31.551Z,8.23
2018-05-29T22:00:59.133Z,11.97
2018-05-29T22:03:27.400Z,11.87
2018-05-29T22:05:54.899Z,13.43
2018-05-29T22:08:22.425Z,8.63
2018-05-29T22:10:49.915Z,7.00
2018-05-29T22:13:18.194Z,7.57
2018-05-29T22:15:46.465Z,10.60
2018-05-29T22:18:13.958Z,8.17
2018-05-29T22:20:41.498Z,8.40
2018-05-29T22:23:09.863Z,10.93
2018-05-29T22:25:37.426Z,6.83
2018-05-29T22:28:04.938Z,10.83
2018-05-29T22:30:32.485Z,6.30
2018-05-29T22:33:00.027Z,6.43
2018-05-29T22:35:27.515Z,6.50
2018-05-29T22:37:55.882Z,6.43
2018-05-29T22:40:23.379Z,6.77
2018-05-29T22:42:50.893Z,7.87
2018-05-29T22:45:18.384Z,8.30
2018-05-29T22:47:46.655Z,6.50
2018-05-29T22:50:14.207Z,5.93
2018-05-29T22:52:41.712Z,6.03
2018-05-29T22:55:09.207Z,6.30
2018-05-29T22:57:36.705Z,5.90
2018-05-29T23:00:04.187Z,5.80
2018-05-29T23:02:32.465Z,5.57
2018-05-29T23:04:59.951Z,5.87
2018-05-29T23:07:28.315Z,5.80
2018-05-29T23:09:55.868Z,5.30
2018-05-29T23:12:24.149Z,5.27
2018-05-29T23:14:51.661Z,6.27
2018-05-29T23:17:19.172Z,5.63
2018-05-29T23:19:46.742Z,5.23
2018-05-29T23:22:14.258Z,5.37
2018-05-29T23:24:41.769Z,5.30
2018-05-29T23:27:09.285Z,6.83
2018-05-29T23:29:36.799Z,5.30
2018-05-29T23:32:04.379Z,5.20
2018-05-29T23:34:31.866Z,5.67
2018-05-29T23:37:00.221Z,5.13
2018-05-29T23:39:27.786Z,5.37
2018-05-29T23:41:55.343Z,5.03
2018-05-29T23:44:22.914Z,5.53
2018-05-29T23:46:50.490Z,4.10
2018-05-29T23:49:17.978Z,5.33
2018-05-29T23:51:46.234Z,4.97
2018-05-29T23:54:13.719Z,4.60
2018-05-29T23:56:42.064Z,4.70
2018-05-29T23:59:09.634Z,5.20
